Time;durP1;ratioP1;P1;durP2;ratioP2;P2;SDS_P1;SDS_P2;PMS_P1;PMS_P2;Temp;Humidity;BMP_temperature;BMP_pressure;BME280_temperature;BME280_humidity;BME280_pressure;Samples;Min_cycle;Max_cycle;Signal;HPM_P1;HPM_P2
2022/11/09 00:01:37;;;;;;;25.52;9.27;;;;;;;-142.37;100.00;59669.53;5031978;28;20504;-66
2022/11/09 00:04:04;;;;;;;23.58;9.05;;;;;;;-142.37;100.00;59669.53;5033267;28;20029;-65
2022/11/09 00:06:31;;;;;;;20.98;8.48;;;;;;;-142.37;100.00;59669.53;5033372;28;20030;-66
2022/11/09 00:08:57;;;;;;;17.13;8.20;;;;;;;-142.37;100.00;59669.53;5032942;28;20025;-66
2022/11/09 00:11:23;;;;;;;20.45;8.90;;;;;;;-142.37;100.00;59669.53;5033188;28;20095;-67
2022/11/09 00:13:49;;;;;;;25.42;8.88;;;;;;;-142.37;100.00;59669.53;5033293;28;20104;-67
2022/11/09 00:16:17;;;;;;;19.10;8.45;;;;;;;-142.37;100.00;59669.53;5033388;28;20044;-65
2022/11/09 00:18:46;;;;;;;19.67;8.45;;;;;;;-142.37;100.00;59669.53;5033238;28;20057;-67
2022/11/09 00:21:19;;;;;;;22.10;8.32;;;;;;;-142.37;100.00;59669.53;5032818;28;20807;-66
2022/11/09 00:23:45;;;;;;;19.38;8.95;;;;;;;-142.37;100.00;59669.53;5031482;28;20088;-64
2022/11/09 00:26:13;;;;;;;21.08;8.00;;;;;;;-142.37;100.00;59669.53;5031575;28;20061;-66
2022/11/09 00:28:39;;;;;;;15.95;7.50;;;;;;;-142.37;100.00;59669.53;5032732;28;20573;-66
2022/11/09 00:31:14;;;;;;;22.63;7.75;;;;;;;-142.37;100.00;59669.53;5031425;28;20495;-66
2022/11/09 00:33:40;;;;;;;27.85;9.38;;;;;;;-142.37;100.00;59669.53;5032707;28;20053;-66
2022/11/09 00:36:09;;;;;;;17.60;8.00;;;;;;;-142.37;100.00;59669.53;5033067;28;20535;-67
2022/11/09 00:38:37;;;;;;;16.98;7.75;;;;;;;-142.37;100.00;59669.53;5032709;28;20030;-66
2022/11/09 00:41:03;;;;;;;17.85;8.27;;;;;;;-142.37;100.00;59669.53;5032345;28;20022;-66
2022/11/09 00:43:29;;;;;;;20.70;7.60;;;;;;;-142.37;100.00;59669.53;5032843;28;20025;-63
2022/11/09 00:45:54;;;;;;;27.10;8.60;;;;;;;-142.37;100.00;59669.53;5032802;28;20030;-67
2022/11/09 00:48:20;;;;;;;27.15;8.82;;;;;;;-142.37;100.00;59669.53;5031456;28;20025;-66
2022/11/09 00:50:53;;;;;;;19.92;7.85;;;;;;;-142.37;100.00;59669.53;5032468;28;20036;-67
2022/11/09 00:53:20;;;;;;;16.25;7.82;;;;;;;-142.37;100.00;59669.53;5032230;28;20042;-67
2022/11/09 00:56:15;;;;;;;18.63;7.35;;;;;;;-142.37;100.00;59669.53;5032615;28;20084;-66
2022/11/09 00:58:41;;;;;;;12.60;6.50;;;;;;;-142.37;100.00;59669.53;5023527;28;20049;-66
2022/11/09 01:01:10;;;;;;;21.98;7.78;;;;;;;-142.37;100.00;59669.53;5030838;28;20025;-65
2022/11/09 01:03:36;;;;;;;19.80;8.13;;;;;;;-142.37;100.00;59669.53;5032225;28;20040;-64
2022/11/09 01:06:02;;;;;;;17.40;7.97;;;;;;;-142.37;100.00;59669.53;5032187;28;20485;-65
2022/11/09 01:08:29;;;;;;;15.13;8.77;;;;;;;-142.37;100.00;59669.53;5031066;28;20033;-65
2022/11/09 01:10:55;;;;;;;20.75;8.57;;;;;;;-142.37;100.00;59669.53;5032534;28;20033;-64
2022/11/09 01:13:20;;;;;;;20.02;8.00;;;;;;;-142.37;100.00;59669.53;5032340;28;20092;-65
2022/11/09 01:15:52;;;;;;;23.77;8.85;;;;;;;-142.37;100.00;59669.53;5032540;28;20108;-66
2022/11/09 01:18:20;;;;;;;17.77;8.23;;;;;;;-142.37;100.00;59669.53;5032301;28;20038;-65
2022/11/09 01:20:48;;;;;;;19.35;7.63;;;;;;;-142.37;100.00;59669.53;5032129;28;20034;-65
2022/11/09 01:23:15;;;;;;;22.10;8.88;;;;;;;-142.37;100.00;59669.53;5032021;28;20053;-65
2022/11/09 01:25:42;;;;;;;21.10;9.40;;;;;;;-142.37;100.00;59669.53;5032258;28;20025;-66
2022/11/09 01:28:08;;;;;;;22.05;9.23;;;;;;;-142.37;100.00;59669.53;5032244;28;20497;-66
2022/11/09 01:30:37;;;;;;;21.60;9.27;;;;;;;-142.37;100.00;59669.53;5031921;28;20347;-66
2022/11/09 01:33:07;;;;;;;27.25;9.50;;;;;;;-142.37;100.00;59669.53;5030846;28;20486;-66
2022/11/09 01:35:37;;;;;;;19.58;8.73;;;;;;;-142.37;100.00;59669.53;5035959;28;20463;-66
2022/11/09 01:38:04;;;;;;;20.35;10.32;;;;;;;-142.37;100.00;59669.53;5035998;28;20030;-65
2022/11/09 01:40:33;;;;;;;25.80;9.60;;;;;;;-142.37;100.00;59669.53;5034984;28;20032;-66
2022/11/09 01:43:13;;;;;;;21.77;9.65;;;;;;;-142.37;100.00;59669.53;5035781;28;20123;-65
2022/11/09 01:45:41;;;;;;;19.92;9.13;;;;;;;-142.37;100.00;59669.53;5034631;28;20393;-66
2022/11/09 01:48:52;;;;;;;18.88;9.00;;;;;;;-142.37;100.00;59669.53;5034681;28;20029;-65
2022/11/09 01:51:25;;;;;;;21.85;8.35;;;;;;;-142.37;100.00;59669.53;5024920;28;20073;-64
2022/11/09 01:53:56;;;;;;;24.60;8.88;;;;;;;-142.37;100.00;59669.53;5035820;28;20034;-65
2022/11/09 01:56:21;;;;;;;18.33;8.65;;;;;;;-142.37;100.00;59669.53;5035626;28;20470;-65
2022/11/09 01:58:59;;;;;;;21.58;9.27;;;;;;;-142.37;100.00;59669.53;5035710;28;20033;-67
2022/11/09 02:01:25;;;;;;;21.08;8.73;;;;;;;-142.37;100.00;59669.53;5035806;28;20029;-67
2022/11/09 02:04:00;;;;;;;20.58;10.40;;;;;;;-142.37;100.00;59669.53;5035705;28;20029;-66
2022/11/09 02:06:29;;;;;;;21.40;9.18;;;;;;;-142.37;100.00;59669.53;5035649;28;20029;-66
2022/11/09 02:09:01;;;;;;;20.85;9.13;;;;;;;-142.37;100.00;59669.53;5035740;28;20033;-68
2022/11/09 02:11:28;;;;;;;30.63;10.02;;;;;;;-142.37;100.00;59669.53;5067522;28;20033;-66
2022/11/09 02:13:59;;;;;;;20.77;10.68;;;;;;;-142.37;100.00;59669.53;5035415;28;20116;-66
2022/11/09 02:16:26;;;;;;;22.30;9.35;;;;;;;-142.37;100.00;59669.53;5035490;28;20474;-65
2022/11/09 02:18:55;;;;;;;22.70;9.90;;;;;;;-142.37;100.00;59669.53;5035688;28;20486;-67
2022/11/09 02:21:23;;;;;;;23.02;9.95;;;;;;;-142.37;100.00;59669.53;5035310;28;20104;-66
2022/11/09 02:23:49;;;;;;;27.55;9.80;;;;;;;-142.37;100.00;59669.53;5035020;28;20498;-67
2022/11/09 02:26:40;;;;;;;23.08;10.75;;;;;;;-142.37;100.00;59669.53;5033817;28;20128;-67
2022/11/09 02:29:08;;;;;;;22.85;10.13;;;;;;;-142.37;100.00;59669.53;5066949;28;20037;-65
2022/11/09 02:31:38;;;;;;;24.15;10.52;;;;;;;-142.37;100.00;59669.53;5034976;28;20033;-66
2022/11/09 02:34:14;;;;;;;21.02;9.63;;;;;;;-142.37;100.00;59669.53;5035246;28;20040;-66
2022/11/09 02:36:42;;;;;;;24.70;10.57;;;;;;;-142.37;100.00;59669.53;5035190;28;20113;-67
2022/11/09 02:39:09;;;;;;;26.45;9.65;;;;;;;-142.37;100.00;59669.53;5034879;28;20026;-65
2022/11/09 02:41:42;;;;;;;22.60;10.13;;;;;;;-142.37;100.00;59669.53;5035196;28;20466;-66
2022/11/09 02:44:08;;;;;;;28.15;11.38;;;;;;;-142.37;100.00;59669.53;5034216;28;20036;-67
2022/11/09 02:46:36;;;;;;;30.42;10.75;;;;;;;-142.37;100.00;59669.53;5034482;28;20541;-64
2022/11/09 02:49:03;;;;;;;23.40;10.38;;;;;;;-142.37;100.00;59669.53;5034543;28;20444;-68
2022/11/09 02:51:29;;;;;;;19.42;9.93;;;;;;;-142.37;100.00;59669.53;5034533;28;20095;-66
2022/11/09 02:53:54;;;;;;;24.50;10.38;;;;;;;-142.37;100.00;59669.53;5034702;28;20029;-67
2022/11/09 02:56:20;;;;;;;21.67;9.88;;;;;;;-142.37;100.00;59669.53;5034449;28;20033;-65
2022/11/09 02:58:45;;;;;;;25.23;9.18;;;;;;;-142.37;100.00;59669.53;5033262;28;20037;-67
2022/11/09 03:01:11;;;;;;;17.45;9.07;;;;;;;-142.37;100.00;59669.53;5034212;28;20035;-66
2022/11/09 03:03:37;;;;;;;22.88;11.82;;;;;;;-142.37;100.00;59669.53;5033123;28;20375;-66
2022/11/09 03:06:03;;;;;;;24.27;10.02;;;;;;;-142.37;100.00;59669.53;5034504;28;20056;-66
2022/11/09 03:08:28;;;;;;;22.85;9.73;;;;;;;-142.37;100.00;59669.53;5066494;28;20083;-67
2022/11/09 03:10:54;;;;;;;19.75;8.90;;;;;;;-142.37;100.00;59669.53;5032865;28;20041;-67
2022/11/09 03:13:19;;;;;;;17.42;9.55;;;;;;;-142.37;100.00;59669.53;5034545;28;20040;-66
2022/11/09 03:15:45;;;;;;;19.40;9.88;;;;;;;-142.37;100.00;59669.53;5034356;28;20036;-66
2022/11/09 03:18:10;;;;;;;20.13;10.20;;;;;;;-142.37;100.00;59669.53;5034152;28;20030;-65
2022/11/09 03:20:36;;;;;;;20.15;10.48;;;;;;;-142.37;100.00;59669.53;5034124;28;20022;-67
2022/11/09 03:23:02;;;;;;;16.83;9.38;;;;;;;-142.37;100.00;59669.53;5033710;28;20057;-67
2022/11/09 03:25:27;;;;;;;20.67;9.98;;;;;;;-142.37;100.00;59669.53;5033946;28;20029;-66
2022/11/09 03:28:01;;;;;;;22.27;10.93;;;;;;;-142.37;100.00;59669.53;5033983;28;20398;-66
2022/11/09 03:30:27;;;;;;;19.10;10.68;;;;;;;-142.37;100.00;59669.53;5034067;28;20029;-66
2022/11/09 03:33:00;;;;;;;23.52;11.88;;;;;;;-142.37;100.00;59669.53;5033764;28;20079;-67
2022/11/09 03:35:27;;;;;;;27.17;11.43;;;;;;;-142.37;100.00;59669.53;5034419;28;20068;-67
2022/11/09 03:37:53;;;;;;;24.38;10.23;;;;;;;-142.37;100.00;59669.53;5065934;28;20095;-67
2022/11/09 03:40:19;;;;;;;21.52;9.98;;;;;;;-142.37;100.00;59669.53;5033667;28;20573;-67
2022/11/09 03:42:46;;;;;;;24.73;10.85;;;;;;;-142.37;100.00;59669.53;5033669;28;20497;-65
2022/11/09 03:45:13;;;;;;;20.25;9.93;;;;;;;-142.37;100.00;59669.53;5033738;28;20034;-66
2022/11/09 03:47:43;;;;;;;24.23;11.35;;;;;;;-142.37;100.00;59669.53;5032532;28;20124;-67
2022/11/09 03:50:10;;;;;;;19.05;11.02;;;;;;;-142.37;100.00;59669.53;5032235;28;20041;-66
2022/11/09 03:52:38;;;;;;;21.77;11.05;;;;;;;-142.37;100.00;59669.53;5033486;28;20505;-66
2022/11/09 03:55:05;;;;;;;17.02;10.48;;;;;;;-142.37;100.00;59669.53;5033518;28;20478;-66
2022/11/09 03:57:31;;;;;;;23.55;10.20;;;;;;;-142.37;100.00;59669.53;5065255;28;20436;-67
2022/11/09 03:59:57;;;;;;;23.35;10.77;;;;;;;-142.37;100.00;59669.53;5033594;28;20029;-66
2022/11/09 04:02:23;;;;;;;21.17;9.45;;;;;;;-142.37;100.00;59669.53;5065441;28;20492;-68
2022/11/09 04:04:48;;;;;;;16.50;8.02;;;;;;;-142.37;100.00;59669.53;5033389;28;20055;-66
2022/11/09 04:07:14;;;;;;;16.58;8.30;;;;;;;-142.37;100.00;59669.53;5033355;28;20474;-67
2022/11/09 04:09:40;;;;;;;22.83;8.95;;;;;;;-142.37;100.00;59669.53;5033587;28;20038;-65
2022/11/09 04:12:05;;;;;;;23.85;9.98;;;;;;;-142.37;100.00;59669.53;5033243;28;20186;-67
2022/11/09 04:14:31;;;;;;;19.73;8.90;;;;;;;-142.37;100.00;59669.53;5033088;28;20492;-66
2022/11/09 04:16:57;;;;;;;21.67;9.30;;;;;;;-142.37;100.00;59669.53;5031639;28;20030;-67
2022/11/09 04:19:22;;;;;;;18.38;9.05;;;;;;;-142.37;100.00;59669.53;5033080;28;20033;-68
2022/11/09 04:21:49;;;;;;;16.88;8.00;;;;;;;-142.37;100.00;59669.53;5032918;28;20106;-67
2022/11/09 04:24:15;;;;;;;20.80;9.40;;;;;;;-142.37;100.00;59669.53;5033046;28;20057;-67
2022/11/09 04:26:40;;;;;;;15.98;8.82;;;;;;;-142.37;100.00;59669.53;5032702;28;20033;-67
2022/11/09 04:29:06;;;;;;;19.67;8.40;;;;;;;-142.37;100.00;59669.53;5031422;28;20122;-66
2022/11/09 04:31:32;;;;;;;28.75;10.38;;;;;;;-142.37;100.00;59669.53;5032791;28;20064;-66
2022/11/09 04:33:57;;;;;;;19.33;8.88;;;;;;;-142.37;100.00;59669.53;5032735;28;20060;-66
2022/11/09 04:36:23;;;;;;;17.08;7.50;;;;;;;-142.37;100.00;59669.53;5032633;28;20370;-67
2022/11/09 04:38:49;;;;;;;20.05;9.95;;;;;;;-142.37;100.00;59669.53;5032827;28;20116;-67
2022/11/09 04:41:15;;;;;;;24.38;9.98;;;;;;;-142.37;100.00;59669.53;5032813;28;20481;-67
2022/11/09 04:43:41;;;;;;;16.23;7.85;;;;;;;-142.37;100.00;59669.53;5032658;28;20437;-67
2022/11/09 04:46:06;;;;;;;16.77;8.55;;;;;;;-142.37;100.00;59669.53;5032554;28;20029;-68
2022/11/09 04:48:33;;;;;;;16.40;7.80;;;;;;;-142.37;100.00;59669.53;5032480;28;20033;-66
2022/11/09 04:51:05;;;;;;;16.70;8.50;;;;;;;-142.37;100.00;59669.53;5032000;28;20091;-67
2022/11/09 04:53:31;;;;;;;15.88;8.98;;;;;;;-142.37;100.00;59669.53;5032247;28;20041;-66
2022/11/09 04:55:56;;;;;;;18.00;8.13;;;;;;;-142.37;100.00;59669.53;5032373;28;20029;-67
2022/11/09 04:58:22;;;;;;;14.00;7.18;;;;;;;-142.37;100.00;59669.53;5032278;28;20077;-66
2022/11/09 05:00:48;;;;;;;18.23;7.93;;;;;;;-142.37;100.00;59669.53;5032170;28;20083;-68
2022/11/09 05:03:14;;;;;;;17.73;7.47;;;;;;;-142.37;100.00;59669.53;5032116;28;20032;-68
2022/11/09 05:05:40;;;;;;;16.98;7.78;;;;;;;-142.37;100.00;59669.53;5032112;28;20037;-70
2022/11/09 05:08:07;;;;;;;11.32;6.88;;;;;;;-142.37;100.00;59669.53;5031481;28;20048;-69
2022/11/09 05:10:34;;;;;;;15.50;7.25;;;;;;;-142.37;100.00;59669.53;5031996;28;20033;-68
2022/11/09 05:13:02;;;;;;;16.55;7.10;;;;;;;-142.37;100.00;59669.53;5030463;28;20044;-67
2022/11/09 05:15:28;;;;;;;12.32;6.63;;;;;;;-142.37;100.00;59669.53;5032342;28;20571;-67
2022/11/09 05:17:55;;;;;;;15.38;7.18;;;;;;;-142.37;100.00;59669.53;5031974;28;20033;-67
2022/11/09 05:20:20;;;;;;;14.73;6.35;;;;;;;-142.37;100.00;59669.53;5031707;28;20300;-67
2022/11/09 05:25:30;;;;;;;12.43;6.47;;;;;;;-142.37;100.00;59669.53;5032064;28;20048;-67
2022/11/09 05:27:56;;;;;;;12.68;6.65;;;;;;;-142.37;100.00;59669.53;5031648;28;20034;-68
2022/11/09 05:30:21;;;;;;;18.80;8.02;;;;;;;-142.37;100.00;59669.53;5030517;28;20398;-68
2022/11/09 05:32:47;;;;;;;17.15;8.20;;;;;;;-142.37;100.00;59669.53;5030289;28;20036;-69
2022/11/09 05:35:13;;;;;;;16.75;7.28;;;;;;;-142.37;100.00;59669.53;5030314;28;20428;-67
2022/11/09 05:37:39;;;;;;;14.63;6.70;;;;;;;-142.37;100.00;59669.53;5031969;28;20048;-67
2022/11/09 05:40:06;;;;;;;15.75;6.43;;;;;;;-142.37;100.00;59669.53;5031207;28;20040;-69
2022/11/09 05:42:32;;;;;;;18.67;7.13;;;;;;;-142.37;100.00;59669.53;5030076;28;20079;-68
2022/11/09 05:44:57;;;;;;;12.02;7.05;;;;;;;-142.37;100.00;59669.53;5029992;28;20038;-67
2022/11/09 05:47:23;;;;;;;12.35;6.47;;;;;;;-142.37;100.00;59669.53;5031540;28;20034;-68
2022/11/09 05:49:48;;;;;;;13.10;6.68;;;;;;;-142.37;100.00;59669.53;5031525;28;20394;-69
2022/11/09 05:52:14;;;;;;;12.40;6.47;;;;;;;-142.37;100.00;59669.53;5031887;28;20044;-68
2022/11/09 05:54:40;;;;;;;17.67;7.03;;;;;;;-142.37;100.00;59669.53;5031393;28;20121;-69
2022/11/09 05:57:06;;;;;;;18.92;6.75;;;;;;;-142.37;100.00;59669.53;5031157;28;20084;-69
2022/11/09 05:59:31;;;;;;;14.27;6.20;;;;;;;-142.37;100.00;59669.53;5031345;28;20033;-68
2022/11/09 06:01:57;;;;;;;16.75;6.78;;;;;;;-142.37;100.00;59669.53;5031182;28;20113;-68
2022/11/09 06:04:22;;;;;;;16.73;6.53;;;;;;;-142.37;100.00;59669.53;5031395;28;20098;-68
2022/11/09 06:06:50;;;;;;;10.82;5.97;;;;;;;-142.37;100.00;59669.53;5029781;28;20041;-68
2022/11/09 06:09:15;;;;;;;15.15;6.15;;;;;;;-142.37;100.00;59669.53;5029845;28;20033;-69
2022/11/09 06:11:41;;;;;;;14.63;5.82;;;;;;;-142.37;100.00;59669.53;5031071;28;20469;-68
2022/11/09 06:14:06;;;;;;;12.65;6.00;;;;;;;-142.37;100.00;59669.53;5031214;28;20049;-69
2022/11/09 06:16:32;;;;;;;12.77;6.45;;;;;;;-142.37;100.00;59669.53;5029254;28;20097;-69
2022/11/09 06:18:57;;;;;;;12.68;6.63;;;;;;;-142.37;100.00;59669.53;5029903;28;20083;-69
2022/11/09 06:21:23;;;;;;;18.92;6.68;;;;;;;-142.37;100.00;59669.53;5034569;28;20509;-70
2022/11/09 06:23:48;;;;;;;15.05;6.80;;;;;;;-142.37;100.00;59669.53;5034481;28;20509;-68
2022/11/09 06:26:14;;;;;;;13.00;8.57;;;;;;;-142.37;100.00;59669.53;5034284;28;20048;-69
2022/11/09 06:28:41;;;;;;;18.98;6.20;;;;;;;-142.37;100.00;59669.53;5034081;28;20033;-70
2022/11/09 06:31:13;;;;;;;13.43;6.85;;;;;;;-142.37;100.00;59669.53;5034674;28;20026;-68
2022/11/09 06:33:38;;;;;;;13.65;6.22;;;;;;;-142.37;100.00;59669.53;5032813;28;20026;-71
2022/11/09 06:36:04;;;;;;;12.38;6.03;;;;;;;-142.37;100.00;59669.53;5032576;28;20382;-69
2022/11/09 06:38:30;;;;;;;13.10;6.63;;;;;;;-142.37;100.00;59669.53;5033046;28;20442;-69
2022/11/09 06:40:57;;;;;;;14.45;6.25;;;;;;;-142.37;100.00;59669.53;5033724;28;20116;-70
2022/11/09 06:43:24;;;;;;;13.90;7.00;;;;;;;-142.37;100.00;59669.53;5033809;28;20040;-69
2022/11/09 06:45:50;;;;;;;13.52;6.80;;;;;;;-142.37;100.00;59669.53;5033730;28;20033;-69
2022/11/09 06:48:16;;;;;;;13.48;7.38;;;;;;;-142.37;100.00;59669.53;5033928;28;20033;-69
2022/11/09 06:50:42;;;;;;;17.92;5.95;;;;;;;-142.37;100.00;59669.53;5031556;28;20064;-70
2022/11/09 06:53:11;;;;;;;14.63;7.63;;;;;;;-142.37;100.00;59669.53;5031979;28;20116;-69
2022/11/09 06:55:38;;;;;;;16.33;7.38;;;;;;;-142.37;100.00;59669.53;5031490;28;20350;-69
2022/11/09 06:58:08;;;;;;;13.35;6.63;;;;;;;-142.37;100.00;59669.53;5032376;28;20029;-68
2022/11/09 07:00:34;;;;;;;13.45;7.18;;;;;;;-142.37;100.00;59669.53;5032313;28;20037;-69
2022/11/09 07:03:00;;;;;;;19.10;6.43;;;;;;;-142.37;100.00;59669.53;5032438;28;20145;-70
2022/11/09 07:05:26;;;;;;;20.30;7.97;;;;;;;-142.37;100.00;59669.53;5033662;28;20429;-69
2022/11/09 07:07:52;;;;;;;14.60;6.35;;;;;;;-142.37;100.00;59669.53;5031511;28;20025;-70
2022/11/09 07:10:18;;;;;;;19.67;7.18;;;;;;;-142.37;100.00;59669.53;5033383;28;20041;-70
2022/11/09 07:12:43;;;;;;;15.63;6.97;;;;;;;-142.37;100.00;59669.53;5033237;28;20079;-70
2022/11/09 07:15:10;;;;;;;16.23;7.13;;;;;;;-142.37;100.00;59669.53;5031448;28;20132;-70
2022/11/09 07:17:38;;;;;;;15.25;7.90;;;;;;;-142.37;100.00;59669.53;5032783;28;20036;-70
2022/11/09 07:20:05;;;;;;;16.30;7.22;;;;;;;-142.37;100.00;59669.53;5032497;28;20335;-70
2022/11/09 07:22:33;;;;;;;17.45;8.48;;;;;;;-142.37;100.00;59669.53;5032993;28;20022;-69
2022/11/09 07:24:59;;;;;;;18.08;7.00;;;;;;;-142.37;100.00;59669.53;5031400;28;20095;-69
2022/11/09 07:27:25;;;;;;;12.93;7.13;;;;;;;-142.37;100.00;59669.53;5032435;28;20061;-70
2022/11/09 07:29:51;;;;;;;17.83;8.80;;;;;;;-142.37;100.00;59669.53;5033109;28;20044;-71
2022/11/09 07:32:16;;;;;;;14.30;5.88;;;;;;;-142.37;100.00;59669.53;5030850;28;20142;-69
2022/11/09 07:34:42;;;;;;;13.98;6.50;;;;;;;-142.37;100.00;59669.53;5031847;28;20095;-71
2022/11/09 07:37:07;;;;;;;14.90;6.18;;;;;;;-142.37;100.00;59669.53;5032497;28;20131;-71
2022/11/09 07:39:33;;;;;;;12.02;5.40;;;;;;;-142.37;100.00;59669.53;5032766;28;20392;-71
2022/11/09 07:41:59;;;;;;;12.23;5.63;;;;;;;-142.37;100.00;59669.53;5033199;28;20504;-70
2022/11/09 07:44:25;;;;;;;17.45;6.25;;;;;;;-142.37;100.00;59669.53;5064630;28;20036;-70
2022/11/09 07:46:50;;;;;;;13.23;5.78;;;;;;;-142.37;100.00;59669.53;5032459;28;20105;-70
2022/11/09 07:49:16;;;;;;;13.65;5.05;;;;;;;-142.37;100.00;59669.53;5031083;28;20022;-70
2022/11/09 07:51:43;;;;;;;16.35;5.28;;;;;;;-142.37;100.00;59669.53;5032245;28;20037;-72
2022/11/09 07:54:10;;;;;;;11.02;5.60;;;;;;;-142.37;100.00;59669.53;5032216;28;20164;-70
2022/11/09 07:56:36;;;;;;;9.30;4.78;;;;;;;-142.37;100.00;59669.53;5030855;28;20056;-70
2022/11/09 07:59:02;;;;;;;16.30;6.13;;;;;;;-142.37;100.00;59669.53;5031639;28;20105;-70
2022/11/09 08:01:28;;;;;;;17.85;6.15;;;;;;;-142.37;100.00;59669.53;5031543;28;20071;-69
2022/11/09 08:03:53;;;;;;;11.40;5.07;;;;;;;-142.37;100.00;59669.53;5033359;28;20035;-70
2022/11/09 08:06:21;;;;;;;15.30;5.10;;;;;;;-142.37;100.00;59669.53;5032495;28;20474;-70
2022/11/09 08:08:48;;;;;;;9.85;5.32;;;;;;;-142.37;100.00;59669.53;5031130;28;20025;-70
2022/11/09 08:11:14;;;;;;;8.45;4.00;;;;;;;-142.37;100.00;59669.53;5032282;28;20082;-70
2022/11/09 08:13:40;;;;;;;10.88;4.80;;;;;;;-142.37;100.00;59669.53;5032684;28;20422;-69
2022/11/09 08:16:06;;;;;;;12.90;5.82;;;;;;;-142.37;100.00;59669.53;5031504;28;20116;-68
2022/11/09 08:18:32;;;;;;;9.65;3.90;;;;;;;-142.37;100.00;59669.53;5031112;28;20120;-69
2022/11/09 08:21:02;;;;;;;13.75;5.20;;;;;;;-142.37;100.00;59669.53;5033000;28;20063;-67
2022/11/09 08:23:28;;;;;;;11.57;4.15;;;;;;;-142.37;100.00;59669.53;5032033;28;20061;-69
2022/11/09 08:25:53;;;;;;;9.27;4.07;;;;;;;-142.37;100.00;59669.53;5032390;28;20037;-69
2022/11/09 08:28:19;;;;;;;19.15;4.20;;;;;;;-142.37;100.00;59669.53;5030950;28;20033;-68
2022/11/09 08:30:53;;;;;;;8.63;3.72;;;;;;;-142.37;100.00;59669.53;5032578;28;20098;-69
2022/11/09 08:33:18;;;;;;;11.75;4.75;;;;;;;-142.37;100.00;59669.53;5030484;28;20033;-69
2022/11/09 08:35:44;;;;;;;15.40;4.60;;;;;;;-142.37;100.00;59669.53;5032057;28;20029;-69
2022/11/09 08:38:09;;;;;;;10.93;4.10;;;;;;;-142.37;100.00;59669.53;5032339;28;20388;-69
2022/11/09 08:40:35;;;;;;;14.02;4.50;;;;;;;-142.37;100.00;59669.53;5032601;28;20084;-68
2022/11/09 08:43:06;;;;;;;8.77;4.10;;;;;;;-142.37;100.00;59669.53;5030477;28;20489;-69
2022/11/09 08:45:34;;;;;;;9.60;3.55;;;;;;;-142.37;100.00;59669.53;5031509;28;20460;-68
2022/11/09 08:48:00;;;;;;;12.30;6.05;;;;;;;-142.37;100.00;59669.53;5031844;28;20425;-68
2022/11/09 08:50:28;;;;;;;11.65;4.05;;;;;;;-142.37;100.00;59669.53;5032341;28;20121;-71
2022/11/09 08:52:54;;;;;;;10.75;4.05;;;;;;;-142.37;100.00;59669.53;5031738;28;20476;-69
2022/11/09 08:55:19;;;;;;;12.93;4.65;;;;;;;-142.37;100.00;59669.53;5031723;28;20394;-68
2022/11/09 08:57:45;;;;;;;21.50;11.80;;;;;;;-142.37;100.00;59669.53;5030625;28;20043;-68
2022/11/09 09:00:11;;;;;;;9.90;5.60;;;;;;;-142.37;100.00;59669.53;5064116;28;20113;-67
2022/11/09 09:02:37;;;;;;;11.82;4.53;;;;;;;-142.37;100.00;59669.53;5030107;28;20065;-68
2022/11/09 09:05:03;;;;;;;17.52;4.75;;;;;;;-142.37;100.00;59669.53;5030297;28;20478;-70
2022/11/09 09:07:29;;;;;;;7.60;4.10;;;;;;;-142.37;100.00;59669.53;5030150;28;20040;-69
2022/11/09 09:09:54;;;;;;;10.48;4.10;;;;;;;-142.37;100.00;59669.53;5030839;28;20124;-69
2022/11/09 09:12:20;;;;;;;10.40;4.05;;;;;;;-142.37;100.00;59669.53;5030180;28;20049;-68
2022/11/09 09:14:46;;;;;;;10.20;3.45;;;;;;;-142.37;100.00;59669.53;5030315;28;20478;-69
2022/11/09 09:17:11;;;;;;;12.85;4.30;;;;;;;-142.37;100.00;59669.53;5030175;28;20026;-69
2022/11/09 09:19:37;;;;;;;11.25;4.20;;;;;;;-142.37;100.00;59669.53;5031235;28;20065;-69
2022/11/09 09:22:03;;;;;;;10.82;4.70;;;;;;;-142.37;100.00;59669.53;5031145;28;20033;-69
2022/11/09 09:24:29;;;;;;;15.18;3.63;;;;;;;-142.37;100.00;59669.53;5031051;28;20071;-68
2022/11/09 09:26:54;;;;;;;7.40;3.95;;;;;;;-142.37;100.00;59669.53;5031561;28;20034;-68
2022/11/09 09:29:20;;;;;;;7.22;3.60;;;;;;;-142.37;100.00;59669.53;5031545;28;20030;-69
2022/11/09 09:31:45;;;;;;;9.02;3.78;;;;;;;-142.37;100.00;59669.53;5030059;28;20135;-69
2022/11/09 09:34:11;;;;;;;11.30;4.40;;;;;;;-142.37;100.00;59669.53;5031278;28;20022;-68
2022/11/09 09:36:37;;;;;;;12.95;4.57;;;;;;;-142.37;100.00;59669.53;5031156;28;20084;-67
2022/11/09 09:39:03;;;;;;;11.95;4.60;;;;;;;-142.37;100.00;59669.53;5031371;28;20034;-66
2022/11/09 09:41:48;;;;;;;8.23;3.60;;;;;;;-142.37;100.00;59669.53;5029832;28;20040;-67
2022/11/09 09:44:32;;;;;;;12.10;3.80;;;;;;;-142.37;100.00;59669.53;5031244;28;20047;-68
2022/11/09 09:47:19;;;;;;;9.02;4.18;;;;;;;-142.37;100.00;59669.53;5029467;28;20041;-67
2022/11/09 09:50:04;;;;;;;7.55;4.05;;;;;;;-142.37;100.00;59669.53;5029888;28;20125;-68
2022/11/09 09:53:02;;;;;;;9.10;3.38;;;;;;;-142.37;100.00;59669.53;5031280;28;20061;-67
2022/11/09 09:55:30;;;;;;;6.90;3.40;;;;;;;-142.37;100.00;59669.53;5020660;28;20037;-66
2022/11/09 09:58:03;;;;;;;7.85;3.13;;;;;;;-142.37;100.00;59669.53;5035060;28;20113;-67
2022/11/09 10:00:32;;;;;;;9.98;3.05;;;;;;;-142.37;100.00;59669.53;5035115;28;20128;-68
2022/11/09 10:02:59;;;;;;;9.38;3.30;;;;;;;-142.37;100.00;59669.53;5034540;28;20041;-68
2022/11/09 10:05:38;;;;;;;7.68;2.85;;;;;;;-142.37;100.00;59669.53;5032879;28;20048;-68
2022/11/09 10:08:19;;;;;;;8.27;2.92;;;;;;;-142.37;100.00;59669.53;5034468;28;20026;-67
2022/11/09 10:11:11;;;;;;;7.80;2.90;;;;;;;-142.37;100.00;59669.53;5033190;28;20077;-68
2022/11/09 10:14:14;;;;;;;5.57;2.80;;;;;;;-142.37;100.00;59669.53;5030626;28;20490;-67
2022/11/09 10:16:42;;;;;;;9.00;3.00;;;;;;;-142.37;100.00;59669.53;5016644;28;20105;-68
2022/11/09 10:19:24;;;;;;;10.43;3.45;;;;;;;-142.37;100.00;59669.53;5032820;28;20040;-66
2022/11/09 10:21:50;;;;;;;21.42;14.48;;;;;;;-142.37;100.00;59669.53;5034404;28;20124;-66
2022/11/09 10:24:30;;;;;;;10.55;3.78;;;;;;;-142.37;100.00;59669.53;5065997;28;20152;-66
2022/11/09 10:27:02;;;;;;;9.35;3.40;;;;;;;-142.37;100.00;59669.53;5033113;28;20061;-69
2022/11/09 10:29:41;;;;;;;10.55;4.55;;;;;;;-142.37;100.00;59669.53;5034600;28;20041;-66
2022/11/09 10:32:21;;;;;;;8.95;3.97;;;;;;;-142.37;100.00;59669.53;5034304;28;20034;-68
2022/11/09 10:34:59;;;;;;;7.63;4.20;;;;;;;-142.37;100.00;59669.53;5033941;28;20122;-66
2022/11/09 10:37:31;;;;;;;10.15;3.65;;;;;;;-142.37;100.00;59669.53;5033947;28;20029;-67
2022/11/09 10:40:10;;;;;;;11.27;4.00;;;;;;;-142.37;100.00;59669.53;5034384;28;20034;-68
2022/11/09 10:42:35;;;;;;;11.55;4.40;;;;;;;-142.37;100.00;59669.53;5032163;28;20478;-68
2022/11/09 10:45:24;;;;;;;12.23;4.05;;;;;;;-142.37;100.00;59669.53;5031325;28;20072;-69
2022/11/09 10:47:51;;;;;;;14.30;6.60;;;;;;;-142.37;100.00;59669.53;5033391;28;20036;-69
2022/11/09 10:50:32;;;;;;;6.60;4.05;;;;;;;-142.37;100.00;59669.53;5031462;28;20040;-69
2022/11/09 10:53:17;;;;;;;9.40;4.30;;;;;;;-142.37;100.00;59669.53;5034497;28;20125;-69
2022/11/09 10:56:10;;;;;;;7.95;4.20;;;;;;;-142.37;100.00;59669.53;5033231;28;20038;-68
2022/11/09 10:58:46;;;;;;;8.90;3.75;;;;;;;-142.37;100.00;59669.53;5031712;28;20545;-66
2022/11/09 11:01:13;;;;;;;12.80;6.53;;;;;;;-142.37;100.00;59669.53;5032090;28;20450;-67
2022/11/09 11:03:40;;;;;;;12.05;4.28;;;;;;;-142.37;100.00;59669.53;5033323;28;20548;-68
2022/11/09 11:06:16;;;;;;;6.65;3.80;;;;;;;-142.37;100.00;59669.53;5030587;28;20398;-68
2022/11/09 11:08:49;;;;;;;8.02;3.88;;;;;;;-142.37;100.00;59669.53;5032050;28;20029;-68
2022/11/09 11:11:22;;;;;;;12.07;4.60;;;;;;;-142.37;100.00;59669.53;5032892;28;20029;-67